createdAt,value
2023-05-05T00:00:07.200Z,11.70
2023-05-05T00:01:07.082Z,11.69
2023-05-05T00:02:07.098Z,11.69
2023-05-05T00:03:07.134Z,11.70
2023-05-05T00:04:07.054Z,11.72
2023-05-05T00:05:07.040Z,11.75
2023-05-05T00:06:07.015Z,11.73
2023-05-05T00:07:07.022Z,11.78
2023-05-05T00:08:07.003Z,11.78
2023-05-05T00:09:07.000Z,11.78
2023-05-05T00:10:07.242Z,11.78
2023-05-05T00:11:06.972Z,11.79
2023-05-05T00:12:06.982Z,11.80
2023-05-05T00:13:06.992Z,11.82
2023-05-05T00:14:06.937Z,11.83
2023-05-05T00:15:06.922Z,11.85
2023-05-05T00:16:06.956Z,11.82
2023-05-05T00:17:06.941Z,11.79
2023-05-05T00:18:06.903Z,11.76
2023-05-05T00:19:06.894Z,11.72
2023-05-05T00:20:07.090Z,11.69
2023-05-05T00:21:06.866Z,11.67
2023-05-05T00:22:06.836Z,11.64
2023-05-05T00:23:06.840Z,11.64
2023-05-05T00:24:06.854Z,11.64
2023-05-05T00:25:06.809Z,11.61
2023-05-05T00:26:06.807Z,11.64
2023-05-05T00:27:06.792Z,11.61
2023-05-05T00:28:06.770Z,11.65
2023-05-05T00:29:06.781Z,11.69
2023-05-05T00:30:07.135Z,11.69
2023-05-05T00:31:06.783Z,11.72
2023-05-05T00:32:06.725Z,11.67
2023-05-05T00:33:06.795Z,11.67
2023-05-05T00:34:06.860Z,11.67
2023-05-05T00:35:06.707Z,11.70
2023-05-05T00:36:06.861Z,11.76
2023-05-05T00:37:06.683Z,11.78
2023-05-05T00:38:06.675Z,11.80
2023-05-05T00:39:06.835Z,11.80
2023-05-05T00:40:06.983Z,11.78
2023-05-05T00:41:06.692Z,11.76
2023-05-05T00:42:06.636Z,11.73
2023-05-05T00:43:06.626Z,11.76
2023-05-05T00:44:06.631Z,11.73
2023-05-05T00:45:06.655Z,11.75
2023-05-05T00:46:06.608Z,11.73
2023-05-05T00:47:06.598Z,11.73
2023-05-05T00:48:06.596Z,11.73
2023-05-05T00:49:06.581Z,11.72
2023-05-05T00:50:06.767Z,11.75
2023-05-05T00:51:06.531Z,11.76
2023-05-05T00:52:06.530Z,11.82
2023-05-05T00:53:06.582Z,11.83
2023-05-05T00:54:06.486Z,11.85
2023-05-05T00:55:06.525Z,11.86
2023-05-05T00:56:06.498Z,11.88
2023-05-05T00:57:06.466Z,11.94
2023-05-05T00:58:06.451Z,11.95
2023-05-05T00:59:06.454Z,11.96
2023-05-05T01:00:06.686Z,12.02
2023-05-05T01:01:06.431Z,12.04
2023-05-05T01:02:06.426Z,12.05
2023-05-05T01:03:06.535Z,12.09
2023-05-05T01:04:06.576Z,12.10
2023-05-05T01:05:06.412Z,12.12
2023-05-05T01:06:06.378Z,12.12
2023-05-05T01:07:06.360Z,12.07
2023-05-05T01:08:06.341Z,12.07
2023-05-05T01:09:06.387Z,12.07
2023-05-05T01:10:18.094Z,12.05
2023-05-05T01:11:07.434Z,12.07
2023-05-05T01:12:06.353Z,12.07
2023-05-05T01:13:06.345Z,12.09
2023-05-05T01:14:06.260Z,12.10
2023-05-05T01:15:06.274Z,12.12
2023-05-05T01:16:06.300Z,12.16
2023-05-05T01:17:06.262Z,12.13
2023-05-05T01:18:06.249Z,12.17
2023-05-05T01:19:06.229Z,12.17
2023-05-05T01:20:06.378Z,12.16
2023-05-05T01:21:06.209Z,12.14
2023-05-05T01:22:06.173Z,12.16
2023-05-05T01:23:06.181Z,12.14
2023-05-05T01:24:06.159Z,12.16
2023-05-05T01:25:06.178Z,12.17
2023-05-05T01:26:06.138Z,12.20
2023-05-05T01:27:06.144Z,12.21
2023-05-05T01:28:06.120Z,12.23
2023-05-05T01:29:06.131Z,12.24
2023-05-05T01:30:06.253Z,12.24
2023-05-05T01:31:06.096Z,12.24
2023-05-05T01:32:06.071Z,12.27
2023-05-05T01:33:06.072Z,12.24
2023-05-05T01:34:06.049Z,12.24
2023-05-05T01:35:06.054Z,12.23
2023-05-05T01:36:06.033Z,12.21
2023-05-05T01:37:06.045Z,12.23
2023-05-05T01:38:06.014Z,12.23
2023-05-05T01:39:06.002Z,12.23
2023-05-05T01:40:06.229Z,12.24
2023-05-05T01:41:05.983Z,12.27
2023-05-05T01:42:06.026Z,12.27
2023-05-05T01:43:05.975Z,12.28
2023-05-05T01:44:09.406Z,12.27
2023-05-05T01:45:05.931Z,12.23
2023-05-05T01:46:05.930Z,12.23
2023-05-05T01:47:05.924Z,12.23
2023-05-05T01:48:05.947Z,12.16
2023-05-05T01:49:05.898Z,12.16
2023-05-05T01:50:06.235Z,12.12
2023-05-05T01:51:05.877Z,12.10
2023-05-05T01:52:05.854Z,12.09
2023-05-05T01:53:05.849Z,12.09
2023-05-05T01:54:05.828Z,12.05
2023-05-05T01:55:05.825Z,12.05
2023-05-05T01:56:05.816Z,12.10
2023-05-05T01:57:05.806Z,12.12
2023-05-05T01:58:05.780Z,12.16
2023-05-05T01:59:05.779Z,12.20
2023-05-05T02:00:05.924Z,12.24
2023-05-05T02:01:05.791Z,12.23
2023-05-05T02:02:05.766Z,12.23
2023-05-05T02:03:05.794Z,12.21
2023-05-05T02:04:05.739Z,12.23
2023-05-05T02:05:05.712Z,12.20
2023-05-05T02:06:05.699Z,12.17
2023-05-05T02:07:05.688Z,12.16
2023-05-05T02:08:05.666Z,12.13
2023-05-05T02:09:05.668Z,12.09
2023-05-05T02:10:05.795Z,12.09
2023-05-05T02:11:05.651Z,12.05
2023-05-05T02:12:05.634Z,12.07
2023-05-05T02:13:05.737Z,12.01
2023-05-05T02:14:05.618Z,12.01
2023-05-05T02:15:05.629Z,11.96
2023-05-05T02:16:05.619Z,11.98
2023-05-05T02:17:05.596Z,11.98
2023-05-05T02:18:05.629Z,11.95
2023-05-05T02:19:05.575Z,11.95
2023-05-05T02:20:05.623Z,11.94
2023-05-05T02:21:05.538Z,11.95
2023-05-05T02:22:05.532Z,11.91
2023-05-05T02:23:05.527Z,11.90
2023-05-05T02:24:05.519Z,11.88
2023-05-05T02:25:05.519Z,11.88
2023-05-05T02:26:05.484Z,11.85
2023-05-05T02:27:05.494Z,11.83
2023-05-05T02:28:05.473Z,11.80
2023-05-05T02:29:05.468Z,11.76
2023-05-05T02:30:05.544Z,11.79
2023-05-05T02:31:05.460Z,11.76
2023-05-05T02:32:05.423Z,11.78
2023-05-05T02:33:05.552Z,11.75
2023-05-05T02:34:05.395Z,11.70
2023-05-05T02:35:05.404Z,11.69
2023-05-05T02:36:05.374Z,11.62
2023-05-05T02:37:05.399Z,11.61
2023-05-05T02:38:05.393Z,11.60
2023-05-05T02:39:05.387Z,11.55
2023-05-05T02:40:05.455Z,11.52
2023-05-05T02:41:05.335Z,11.52
2023-05-05T02:42:05.309Z,11.51
2023-05-05T02:43:05.371Z,11.49
2023-05-05T02:44:05.310Z,11.54
2023-05-05T02:45:06.092Z,11.55
2023-05-05T02:46:05.430Z,11.58
2023-05-05T02:47:05.259Z,11.54
2023-05-05T02:48:05.275Z,11.52
2023-05-05T02:49:05.260Z,11.51
2023-05-05T02:50:05.354Z,11.47
2023-05-05T02:51:05.214Z,11.46
2023-05-05T02:52:05.209Z,11.43
2023-05-05T02:53:05.201Z,11.44
2023-05-05T02:54:05.181Z,11.43
2023-05-05T02:55:05.191Z,11.42
2023-05-05T02:56:05.196Z,11.42
2023-05-05T02:57:05.163Z,11.39
2023-05-05T02:58:05.146Z,11.37
2023-05-05T02:59:05.128Z,11.37
2023-05-05T03:00:05.160Z,11.39
2023-05-05T03:01:05.139Z,11.36
2023-05-05T03:02:05.092Z,11.35
2023-05-05T03:03:05.200Z,11.33
2023-05-05T03:04:05.077Z,11.29
2023-05-05T03:05:05.323Z,11.33
2023-05-05T03:06:05.043Z,11.32
2023-05-05T03:07:05.053Z,11.29
2023-05-05T03:08:05.023Z,11.29
2023-05-05T03:09:05.024Z,11.27
2023-05-05T03:10:05.158Z,11.24
2023-05-05T03:11:04.993Z,11.22
2023-05-05T03:12:05.002Z,11.18
2023-05-05T03:13:05.014Z,11.14
2023-05-05T03:14:04.961Z,11.11
2023-05-05T03:15:04.948Z,11.10
2023-05-05T03:16:04.971Z,11.11
2023-05-05T03:17:04.936Z,11.15
2023-05-05T03:18:04.971Z,11.15
2023-05-05T03:19:04.902Z,11.14
2023-05-05T03:20:04.989Z,11.10
2023-05-05T03:21:04.878Z,11.06
2023-05-05T03:22:04.875Z,11.00
2023-05-05T03:23:04.864Z,10.99
2023-05-05T03:24:04.864Z,10.96
2023-05-05T03:25:04.836Z,10.99
2023-05-05T03:26:04.847Z,10.94
2023-05-05T03:27:04.812Z,10.94
2023-05-05T03:28:04.807Z,10.91
2023-05-05T03:29:04.793Z,10.88
2023-05-05T03:30:04.883Z,10.89
2023-05-05T03:31:04.774Z,10.88
2023-05-05T03:32:04.895Z,10.88
2023-05-05T03:33:04.779Z,10.85
2023-05-05T03:34:04.740Z,10.84
2023-05-05T03:35:04.716Z,10.85
2023-05-05T03:36:04.754Z,10.85
2023-05-05T03:37:04.710Z,10.78
2023-05-05T03:38:04.704Z,10.78
2023-05-05T03:39:04.690Z,10.74
2023-05-05T03:40:04.760Z,10.71
2023-05-05T03:41:04.652Z,10.68
2023-05-05T03:42:04.662Z,10.67
2023-05-05T03:43:04.632Z,10.67
2023-05-05T03:44:04.634Z,10.63
2023-05-05T03:45:04.637Z,10.63
2023-05-05T03:46:04.623Z,10.63
2023-05-05T03:47:04.591Z,10.61
2023-05-05T03:48:04.630Z,10.59
2023-05-05T03:49:04.571Z,10.56
2023-05-05T03:50:04.585Z,10.53
2023-05-05T03:51:04.572Z,10.56
2023-05-05T03:52:04.544Z,10.53
2023-05-05T03:53:04.527Z,10.52
2023-05-05T03:54:04.527Z,10.55
2023-05-05T03:55:04.516Z,10.53
2023-05-05T03:56:04.508Z,10.53
2023-05-05T03:57:04.508Z,10.55
2023-05-05T03:58:04.482Z,10.56
2023-05-05T03:59:04.516Z,10.59
2023-05-05T04:00:04.476Z,10.56
2023-05-05T04:01:04.434Z,10.63
2023-05-05T04:02:04.468Z,10.66
2023-05-05T04:03:04.486Z,10.67
2023-05-05T04:04:04.435Z,10.71
2023-05-05T04:05:04.404Z,10.73
2023-05-05T04:06:04.400Z,10.71
2023-05-05T04:07:04.383Z,10.76
2023-05-05T04:08:04.374Z,10.79
2023-05-05T04:09:05.182Z,10.82
2023-05-05T04:10:04.348Z,10.82
2023-05-05T04:11:04.336Z,10.85
2023-05-05T04:12:04.394Z,10.84
2023-05-05T04:13:04.403Z,10.85
2023-05-05T04:14:04.308Z,10.88
2023-05-05T04:15:04.286Z,10.88
2023-05-05T04:16:04.325Z,10.92
2023-05-05T04:17:04.271Z,10.92
2023-05-05T04:18:04.343Z,10.91
2023-05-05T04:19:04.256Z,10.91
2023-05-05T04:20:04.250Z,10.94
2023-05-05T04:21:04.229Z,10.91
2023-05-05T04:22:04.250Z,10.94
2023-05-05T04:23:04.226Z,10.94
2023-05-05T04:24:04.201Z,10.97
2023-05-05T04:25:04.203Z,11.02
2023-05-05T04:26:04.176Z,11.03
2023-05-05T04:27:04.156Z,11.02
2023-05-05T04:28:04.161Z,11.04
2023-05-05T04:29:04.138Z,11.07
2023-05-05T04:30:04.139Z,11.09
2023-05-05T04:31:04.135Z,11.09
2023-05-05T04:32:04.120Z,11.11
2023-05-05T04:33:04.107Z,11.17
2023-05-05T04:34:04.097Z,11.17
2023-05-05T04:35:04.080Z,11.17
2023-05-05T04:36:04.070Z,11.19
2023-05-05T04:37:04.049Z,11.15
2023-05-05T04:38:04.049Z,11.15
2023-05-05T04:39:04.852Z,11.15
2023-05-05T04:40:04.019Z,11.18
2023-05-05T04:41:04.010Z,11.17
2023-05-05T04:42:04.002Z,11.15
2023-05-05T04:43:03.978Z,11.17
2023-05-05T04:44:03.977Z,11.15
2023-05-05T04:45:03.969Z,11.17
2023-05-05T04:46:03.993Z,11.19
2023-05-05T04:47:03.935Z,11.17
2023-05-05T04:48:04.030Z,11.18
2023-05-05T04:49:03.922Z,11.19
2023-05-05T04:50:04.005Z,11.18
2023-05-05T04:51:03.898Z,11.21
2023-05-05T04:52:03.894Z,11.19
2023-05-05T04:53:03.869Z,11.24
2023-05-05T04:54:03.873Z,11.28
2023-05-05T04:55:03.852Z,11.29
2023-05-05T04:56:03.880Z,11.33
2023-05-05T04:57:03.834Z,11.39
2023-05-05T04:58:03.838Z,11.44
2023-05-05T04:59:03.827Z,11.51
2023-05-05T05:00:03.802Z,11.58
2023-05-05T05:01:03.812Z,11.62
2023-05-05T05:02:03.830Z,11.69
2023-05-05T05:03:03.825Z,11.76
2023-05-05T05:04:03.791Z,11.82
2023-05-05T05:05:03.744Z,11.88
2023-05-05T05:06:03.743Z,11.96
2023-05-05T05:07:03.720Z,11.96
2023-05-05T05:08:03.748Z,12.02
2023-05-05T05:09:03.690Z,12.07
2023-05-05T05:10:03.720Z,12.09
2023-05-05T05:11:03.670Z,12.16
2023-05-05T05:12:03.670Z,12.20
2023-05-05T05:13:03.741Z,12.24
2023-05-05T05:14:03.644Z,12.27
2023-05-05T05:15:03.649Z,12.32
2023-05-05T05:16:03.720Z,12.34
2023-05-05T05:17:03.619Z,12.38
2023-05-05T05:18:03.693Z,12.42
2023-05-05T05:19:03.656Z,12.47
2023-05-05T05:20:03.655Z,12.52
2023-05-05T05:21:03.621Z,12.59
2023-05-05T05:22:03.668Z,12.65
2023-05-05T05:23:03.543Z,12.71
2023-05-05T05:24:03.544Z,12.75
2023-05-05T05:25:03.521Z,12.79
2023-05-05T05:26:03.517Z,12.83
2023-05-05T05:27:03.513Z,12.87
2023-05-05T05:28:10.124Z,12.86
2023-05-05T05:29:04.479Z,12.85
2023-05-05T05:30:03.484Z,12.89
2023-05-05T05:31:03.475Z,12.92
2023-05-05T05:32:03.509Z,12.95
2023-05-05T05:33:03.452Z,12.95
2023-05-05T05:34:03.439Z,12.96
2023-05-05T05:35:03.430Z,13.00
2023-05-05T05:36:03.417Z,13.05
2023-05-05T05:37:03.419Z,13.11
2023-05-05T05:38:03.391Z,13.14
2023-05-05T05:39:03.357Z,13.22
2023-05-05T05:40:03.365Z,13.32
2023-05-05T05:41:03.343Z,13.38
2023-05-05T05:42:03.342Z,13.39
2023-05-05T05:43:03.324Z,13.42
2023-05-05T05:44:03.318Z,13.46
2023-05-05T05:45:03.312Z,13.49
2023-05-05T05:46:03.351Z,13.48
2023-05-05T05:47:03.281Z,13.46
2023-05-05T05:48:03.338Z,13.51
2023-05-05T05:49:03.270Z,13.59
2023-05-05T05:50:03.278Z,13.62
2023-05-05T05:51:03.248Z,13.63
2023-05-05T05:52:03.233Z,13.63
2023-05-05T05:53:03.235Z,13.69
2023-05-05T05:54:03.222Z,13.71
2023-05-05T05:55:03.192Z,13.70
2023-05-05T05:56:03.191Z,13.73
2023-05-05T05:57:03.171Z,13.77
2023-05-05T05:58:03.172Z,13.82
2023-05-05T05:59:03.150Z,13.91
2023-05-05T06:00:03.158Z,13.95
2023-05-05T06:01:03.132Z,14.03
2023-05-05T06:02:03.296Z,14.09
2023-05-05T06:03:03.276Z,14.24
2023-05-05T06:04:03.229Z,14.36
2023-05-05T06:05:03.081Z,14.46
2023-05-05T06:06:03.087Z,14.57
2023-05-05T06:07:03.062Z,14.68
2023-05-05T06:08:03.063Z,14.83
2023-05-05T06:09:03.048Z,14.98
2023-05-05T06:10:11.254Z,15.13
2023-05-05T06:11:04.019Z,15.27
2023-05-05T06:12:03.031Z,15.39
2023-05-05T06:13:03.130Z,15.54
2023-05-05T06:14:03.001Z,15.65
2023-05-05T06:15:02.995Z,15.74
2023-05-05T06:16:03.024Z,15.87
2023-05-05T06:17:02.957Z,16.00
2023-05-05T06:18:03.052Z,16.08
2023-05-05T06:19:02.932Z,16.20
2023-05-05T06:20:02.926Z,16.33
2023-05-05T06:21:02.921Z,16.46
2023-05-05T06:22:02.912Z,16.58
2023-05-05T06:23:03.740Z,16.68
2023-05-05T06:24:02.893Z,16.78
2023-05-05T06:25:02.869Z,16.83
2023-05-05T06:26:02.866Z,16.94
2023-05-05T06:27:02.863Z,17.01
2023-05-05T06:28:02.852Z,17.11
2023-05-05T06:29:02.827Z,17.16
2023-05-05T06:30:02.864Z,17.22
2023-05-05T06:31:02.824Z,17.31
2023-05-05T06:32:02.821Z,17.40
2023-05-05T06:33:02.822Z,17.46
2023-05-05T06:34:02.793Z,17.52
2023-05-05T06:35:02.760Z,17.49
2023-05-05T06:36:02.762Z,17.51
2023-05-05T06:37:02.744Z,17.52
2023-05-05T06:38:02.743Z,17.62
2023-05-05T06:39:02.731Z,17.63
2023-05-05T06:40:02.719Z,17.66
2023-05-05T06:41:02.743Z,17.66
2023-05-05T06:42:02.702Z,17.68
2023-05-05T06:43:02.668Z,17.71
2023-05-05T06:44:02.680Z,17.72
2023-05-05T06:45:02.795Z,17.82
2023-05-05T06:46:02.652Z,17.89
2023-05-05T06:47:02.653Z,17.93
2023-05-05T06:48:02.738Z,17.97
2023-05-05T06:49:02.621Z,18.03
2023-05-05T06:50:02.633Z,18.08
2023-05-05T06:51:02.921Z,18.15
2023-05-05T06:52:02.588Z,18.17
2023-05-05T06:53:02.571Z,18.18
2023-05-05T06:54:02.936Z,18.25
2023-05-05T06:55:02.578Z,18.27
2023-05-05T06:56:02.553Z,18.21
2023-05-05T06:57:02.532Z,18.15
2023-05-05T06:58:02.527Z,18.15
2023-05-05T06:59:02.510Z,18.14
2023-05-05T07:00:02.519Z,18.18
2023-05-05T07:01:02.529Z,18.21
2023-05-05T07:02:02.474Z,18.25
2023-05-05T07:03:02.500Z,18.21
2023-05-05T07:04:02.506Z,18.08
2023-05-05T07:05:02.464Z,18.10
2023-05-05T07:06:02.433Z,18.14
2023-05-05T07:07:02.429Z,18.14
2023-05-05T07:08:02.441Z,18.30
2023-05-05T07:09:02.401Z,18.42
2023-05-05T07:10:02.397Z,18.54
2023-05-05T07:11:02.386Z,18.60
2023-05-05T07:12:02.415Z,18.63
2023-05-05T07:13:02.385Z,18.66
2023-05-05T07:14:02.352Z,18.72
2023-05-05T07:15:09.569Z,18.78
2023-05-05T07:16:03.519Z,18.84
2023-05-05T07:17:02.590Z,18.92
2023-05-05T07:18:02.406Z,19.02
2023-05-05T07:19:02.288Z,19.18
2023-05-05T07:20:02.320Z,19.25
2023-05-05T07:21:02.279Z,19.31
2023-05-05T07:22:02.339Z,19.37
2023-05-05T07:23:02.257Z,19.46
2023-05-05T07:24:02.250Z,19.50
2023-05-05T07:25:02.255Z,19.54
2023-05-05T07:26:02.240Z,19.47
2023-05-05T07:27:02.217Z,19.54
2023-05-05T07:28:02.199Z,19.55
2023-05-05T07:29:02.202Z,19.71
2023-05-05T07:30:04.043Z,19.91
2023-05-05T07:31:02.177Z,20.08
2023-05-05T07:32:02.203Z,20.02
2023-05-05T07:33:02.170Z,19.98
2023-05-05T07:34:02.174Z,20.08
2023-05-05T07:35:02.157Z,20.23
2023-05-05T07:36:02.138Z,20.33
2023-05-05T07:37:02.130Z,20.52
2023-05-05T07:38:02.087Z,20.70
2023-05-05T07:39:02.112Z,20.79
2023-05-05T07:40:02.075Z,20.74
2023-05-05T07:41:02.060Z,20.73
2023-05-05T07:42:02.038Z,20.79
2023-05-05T07:43:02.049Z,20.67
2023-05-05T07:44:02.035Z,20.38
2023-05-05T07:45:02.030Z,20.39
2023-05-05T07:46:02.051Z,20.54
2023-05-05T07:47:01.988Z,20.57
2023-05-05T07:48:02.050Z,20.66
2023-05-05T07:49:01.974Z,20.72
2023-05-05T07:50:02.277Z,20.64
2023-05-05T07:51:01.980Z,20.61
2023-05-05T07:52:01.947Z,20.42
2023-05-05T07:53:10.541Z,20.48
2023-05-05T07:54:02.908Z,20.50
2023-05-05T07:55:01.907Z,20.35
2023-05-05T07:56:01.906Z,20.28
2023-05-05T07:57:01.948Z,20.43
2023-05-05T07:58:01.945Z,20.61
2023-05-05T07:59:01.861Z,20.64
2023-05-05T08:00:01.835Z,20.69
2023-05-05T08:01:01.846Z,20.72
2023-05-05T08:02:01.820Z,20.94
2023-05-05T08:03:01.906Z,21.19
2023-05-05T08:04:01.889Z,21.17
2023-05-05T08:05:01.813Z,21.19
2023-05-05T08:06:02.211Z,21.31
2023-05-05T08:07:01.783Z,21.54
2023-05-05T08:08:01.757Z,21.53
2023-05-05T08:09:01.767Z,21.64
2023-05-05T08:10:01.758Z,21.74
2023-05-05T08:11:02.182Z,21.88
2023-05-05T08:12:01.713Z,22.06
2023-05-05T08:13:01.768Z,22.15
2023-05-05T08:14:01.695Z,22.30
2023-05-05T08:15:01.752Z,22.47
2023-05-05T08:16:01.704Z,22.45
2023-05-05T08:17:01.677Z,22.42
2023-05-05T08:18:01.691Z,22.46
2023-05-05T08:19:01.650Z,22.51
2023-05-05T08:20:01.640Z,22.25
2023-05-05T08:21:01.654Z,22.12
2023-05-05T08:22:01.752Z,22.06
2023-05-05T08:23:01.632Z,22.12
2023-05-05T08:24:01.586Z,22.22
2023-05-05T08:25:01.595Z,22.43
2023-05-05T08:26:01.566Z,22.52
2023-05-05T08:27:01.656Z,22.55
2023-05-05T08:28:01.562Z,22.67
2023-05-05T08:29:01.560Z,22.49
2023-05-05T08:30:01.530Z,22.39
2023-05-05T08:31:01.580Z,22.27
2023-05-05T08:32:01.546Z,22.39
2023-05-05T08:33:01.609Z,22.40
2023-05-05T08:34:01.487Z,22.24
2023-05-05T08:35:01.497Z,22.33
2023-05-05T08:36:01.458Z,22.25
2023-05-05T08:37:01.469Z,22.30
2023-05-05T08:38:01.445Z,22.49
2023-05-05T08:39:01.460Z,22.64
2023-05-05T08:40:01.416Z,22.70
2023-05-05T08:41:01.421Z,22.52
2023-05-05T08:42:01.392Z,22.42
2023-05-05T08:43:01.410Z,22.42
2023-05-05T08:44:01.373Z,22.55
2023-05-05T08:45:01.370Z,22.60
2023-05-05T08:46:01.376Z,22.67
2023-05-05T08:47:01.506Z,22.57
2023-05-05T08:48:01.419Z,22.79
2023-05-05T08:49:01.347Z,22.82
2023-05-05T08:50:01.330Z,22.85
2023-05-05T08:51:03.264Z,22.83
2023-05-05T08:52:01.285Z,23.04
2023-05-05T08:53:01.322Z,23.09
2023-05-05T08:54:01.281Z,23.02
2023-05-05T08:55:01.282Z,22.79
2023-05-05T08:56:01.252Z,22.97
2023-05-05T08:57:01.254Z,22.97
2023-05-05T08:58:01.244Z,23.05
2023-05-05T08:59:01.245Z,23.19
2023-05-05T09:00:01.205Z,23.43
2023-05-05T09:01:01.263Z,23.66
2023-05-05T09:02:01.217Z,23.88
2023-05-05T09:03:01.553Z,23.95
2023-05-05T09:04:01.149Z,24.13
2023-05-05T09:05:01.303Z,23.97
2023-05-05T09:06:01.143Z,23.97
2023-05-05T09:07:01.149Z,23.98
2023-05-05T09:08:01.126Z,24.00
2023-05-05T09:09:01.125Z,23.83
2023-05-05T09:10:01.093Z,23.66
2023-05-05T09:11:01.111Z,23.57
2023-05-05T09:12:01.069Z,23.65
2023-05-05T09:13:01.104Z,23.90
2023-05-05T09:14:01.050Z,24.10
2023-05-05T09:15:01.053Z,24.03
2023-05-05T09:16:01.025Z,24.20
2023-05-05T09:17:01.093Z,24.13
2023-05-05T09:18:01.073Z,24.12
2023-05-05T09:19:01.019Z,24.25
2023-05-05T09:20:01.173Z,24.40
2023-05-05T09:21:00.985Z,24.47
2023-05-05T09:22:00.966Z,24.02
2023-05-05T09:23:00.968Z,23.42
2023-05-05T09:24:07.743Z,23.04
2023-05-05T09:25:01.938Z,23.02
2023-05-05T09:26:00.927Z,23.05
2023-05-05T09:27:00.934Z,23.05
2023-05-05T09:28:00.898Z,23.12
2023-05-05T09:29:00.900Z,23.39
2023-05-05T09:30:00.882Z,23.47
2023-05-05T09:31:00.882Z,23.55
2023-05-05T09:32:00.850Z,23.72
2023-05-05T09:33:00.894Z,23.94
2023-05-05T09:34:00.838Z,23.55
2023-05-05T09:35:00.842Z,23.75
2023-05-05T09:36:00.853Z,23.83
2023-05-05T09:37:00.817Z,24.02
2023-05-05T09:38:00.799Z,24.24
2023-05-05T09:39:00.790Z,24.22
2023-05-05T09:40:00.776Z,24.22
2023-05-05T09:41:00.776Z,24.18
2023-05-05T09:42:00.874Z,24.00
2023-05-05T09:43:00.757Z,24.02
2023-05-05T09:44:00.731Z,24.16
2023-05-05T09:45:00.731Z,24.06
2023-05-05T09:46:00.719Z,24.03
2023-05-05T09:47:00.718Z,24.02
2023-05-05T09:48:00.987Z,24.03
2023-05-05T09:49:00.691Z,24.05
2023-05-05T09:50:00.695Z,24.21
2023-05-05T09:51:00.678Z,24.42
2023-05-05T09:52:00.736Z,24.53
2023-05-05T09:53:00.716Z,24.35
2023-05-05T09:54:00.626Z,24.46
2023-05-05T09:55:00.623Z,24.50
2023-05-05T09:56:00.614Z,24.45
2023-05-05T09:57:00.612Z,24.15
2023-05-05T09:58:00.606Z,24.37
2023-05-05T09:59:00.576Z,24.25
2023-05-05T10:00:00.584Z,24.18
2023-05-05T10:01:00.557Z,24.16
2023-05-05T10:02:00.631Z,24.30
2023-05-05T10:03:00.548Z,24.52
2023-05-05T10:04:00.504Z,24.49
2023-05-05T10:05:02.288Z,24.06
2023-05-05T10:06:00.492Z,24.21
2023-05-05T10:07:00.492Z,24.40
2023-05-05T10:08:00.463Z,24.50
2023-05-05T10:09:00.471Z,24.58
2023-05-05T10:10:00.446Z,24.55
2023-05-05T10:11:00.478Z,24.49
2023-05-05T10:12:00.428Z,24.40
2023-05-05T10:13:00.460Z,24.61
2023-05-05T10:14:00.402Z,24.85
2023-05-05T10:15:00.398Z,25.08
2023-05-05T10:16:00.427Z,24.99
2023-05-05T10:17:00.384Z,24.73
2023-05-05T10:18:07.551Z,24.71
2023-05-05T10:19:01.363Z,24.67
2023-05-05T10:20:00.384Z,24.60
2023-05-05T10:21:00.334Z,24.10
2023-05-05T10:22:00.323Z,23.98
2023-05-05T10:23:00.315Z,24.05
2023-05-05T10:24:00.309Z,23.95
2023-05-05T10:25:00.296Z,24.13
2023-05-05T10:26:00.283Z,24.28
2023-05-05T10:27:00.280Z,24.40
2023-05-05T10:28:00.252Z,24.28
2023-05-05T10:29:00.252Z,24.50
2023-05-05T10:30:00.242Z,24.65
2023-05-05T10:31:00.243Z,24.57
2023-05-05T10:32:00.291Z,24.22
2023-05-05T10:33:17.381Z,24.09
2023-05-05T10:34:01.255Z,24.15
2023-05-05T10:35:00.187Z,24.42
2023-05-05T10:36:00.170Z,24.58
2023-05-05T10:37:00.209Z,24.73
2023-05-05T10:38:00.160Z,24.88
2023-05-05T10:39:00.176Z,25.10
2023-05-05T10:40:00.181Z,25.28
2023-05-05T10:41:00.181Z,25.25
2023-05-05T10:42:00.146Z,25.25
2023-05-05T10:43:00.139Z,25.38
2023-05-05T10:44:02.771Z,25.13
2023-05-05T10:45:00.149Z,25.24
2023-05-05T10:46:00.123Z,25.30
2023-05-05T10:47:00.087Z,25.50
2023-05-05T10:48:00.133Z,25.82
2023-05-05T10:49:00.225Z,26.09
2023-05-05T10:50:00.037Z,25.83
2023-05-05T10:51:00.031Z,26.01
2023-05-05T10:52:00.010Z,25.88
2023-05-05T10:52:59.999Z,25.99
2023-05-05T10:53:59.991Z,25.67
2023-05-05T10:54:59.978Z,25.45
2023-05-05T10:55:59.979Z,25.60
2023-05-05T10:56:59.957Z,25.80
2023-05-05T10:57:59.950Z,25.92
2023-05-05T10:59:00.837Z,25.83
2023-05-05T10:59:59.942Z,25.60
2023-05-05T11:00:59.967Z,25.42
2023-05-05T11:01:59.906Z,25.35
2023-05-05T11:02:59.998Z,25.21
2023-05-05T11:03:59.932Z,25.35
2023-05-05T11:04:59.876Z,25.45
2023-05-05T11:05:59.861Z,25.58
2023-05-05T11:06:59.859Z,25.82
2023-05-05T11:07:59.841Z,25.98
2023-05-05T11:08:59.839Z,25.83
2023-05-05T11:09:59.818Z,26.06
2023-05-05T11:10:59.810Z,26.33
2023-05-05T11:11:59.796Z,26.25
2023-05-05T11:12:59.819Z,26.33
2023-05-05T11:13:59.773Z,26.01
2023-05-05T11:14:59.769Z,26.05
2023-05-05T11:15:59.749Z,26.20
2023-05-05T11:16:59.799Z,26.13
2023-05-05T11:17:59.794Z,26.05
2023-05-05T11:18:59.738Z,26.33
2023-05-05T11:19:59.721Z,26.26
2023-05-05T11:20:59.736Z,26.12
2023-05-05T11:21:59.702Z,26.18
2023-05-05T11:22:59.711Z,26.30
2023-05-05T11:23:59.676Z,26.43
2023-05-05T11:24:59.665Z,26.43
2023-05-05T11:25:59.654Z,26.37
2023-05-05T11:26:59.648Z,26.51
2023-05-05T11:27:59.632Z,26.54
2023-05-05T11:28:59.650Z,26.62
2023-05-05T11:29:59.603Z,26.80
2023-05-05T11:30:59.934Z,26.69
2023-05-05T11:31:59.592Z,26.72
2023-05-05T11:32:59.603Z,26.70
2023-05-05T11:33:59.570Z,26.63
2023-05-05T11:34:59.567Z,26.55
2023-05-05T11:35:59.540Z,26.18
2023-05-05T11:36:59.542Z,25.77
2023-05-05T11:37:59.518Z,25.28
2023-05-05T11:38:59.539Z,25.06
2023-05-05T11:39:59.506Z,25.03
2023-05-05T11:40:59.499Z,24.96
2023-05-05T11:41:59.483Z,25.24
2023-05-05T11:42:59.473Z,25.33
2023-05-05T11:43:59.479Z,25.43
2023-05-05T11:44:59.455Z,25.51
2023-05-05T11:45:59.463Z,25.67
2023-05-05T11:46:59.464Z,25.21
2023-05-05T11:47:59.457Z,25.38
2023-05-05T11:48:59.409Z,25.57
2023-05-05T11:49:59.406Z,25.60
2023-05-05T11:50:59.376Z,25.87
2023-05-05T11:51:59.397Z,25.92
2023-05-05T11:52:59.367Z,25.57
2023-05-05T11:53:59.433Z,25.57
2023-05-05T11:54:59.345Z,25.64
2023-05-05T11:55:59.340Z,25.43
2023-05-05T11:56:59.555Z,25.58
2023-05-05T11:57:59.336Z,25.54
2023-05-05T11:58:59.295Z,25.46
2023-05-05T11:59:59.308Z,25.62
2023-05-05T12:00:59.281Z,25.85
2023-05-05T12:01:59.289Z,26.18
2023-05-05T12:02:59.297Z,26.10
2023-05-05T12:03:59.404Z,26.36
2023-05-05T12:04:59.272Z,26.32
2023-05-05T12:05:59.242Z,26.32
2023-05-05T12:06:59.237Z,26.33
2023-05-05T12:07:59.221Z,26.48
2023-05-05T12:08:59.195Z,26.45
2023-05-05T12:09:59.196Z,26.62
2023-05-05T12:10:59.178Z,25.95
2023-05-05T12:11:59.178Z,25.42
2023-05-05T12:12:59.174Z,25.57
2023-05-05T12:13:59.157Z,25.98
2023-05-05T12:14:59.137Z,26.10
2023-05-05T12:15:59.171Z,26.02
2023-05-05T12:16:59.104Z,26.43
2023-05-05T12:18:02.129Z,26.63
2023-05-05T12:18:59.094Z,26.81
2023-05-05T12:19:59.096Z,26.95
2023-05-05T12:20:59.071Z,27.28
2023-05-05T12:21:59.069Z,27.34
2023-05-05T12:22:59.045Z,27.50
2023-05-05T12:23:59.049Z,27.69
2023-05-05T12:24:59.028Z,27.60
2023-05-05T12:25:59.027Z,27.37
2023-05-05T12:26:59.018Z,26.63
2023-05-05T12:27:59.006Z,26.62
2023-05-05T12:28:59.009Z,26.58
2023-05-05T12:29:58.982Z,26.50
2023-05-05T12:30:59.093Z,26.52
2023-05-05T12:31:58.999Z,26.66
2023-05-05T12:32:58.982Z,26.75
2023-05-05T12:33:58.948Z,26.91
2023-05-05T12:34:58.925Z,27.21
2023-05-05T12:35:58.943Z,27.24
2023-05-05T12:36:58.920Z,27.18
2023-05-05T12:37:58.907Z,26.39
2023-05-05T12:38:58.887Z,26.21
2023-05-05T12:39:58.893Z,26.50
2023-05-05T12:40:58.861Z,26.67
2023-05-05T12:41:58.867Z,26.82
2023-05-05T12:42:58.893Z,27.10
2023-05-05T12:43:58.847Z,27.41
2023-05-05T12:44:58.817Z,27.51
2023-05-05T12:45:58.936Z,27.04
2023-05-05T12:46:58.805Z,26.94
2023-05-05T12:47:58.829Z,26.51
2023-05-05T12:48:58.777Z,26.65
2023-05-05T12:49:58.782Z,26.77
2023-05-05T12:50:58.765Z,26.99
2023-05-05T12:51:58.756Z,26.94